createdAt,value
2018-01-20T00:00:34.800Z,88.31
2018-01-20T00:03:02.400Z,88.33
2018-01-20T00:05:29.951Z,87.71
2018-01-20T00:07:57.932Z,87.39
2018-01-20T00:13:26.372Z,87.98
2018-01-20T00:15:53.984Z,87.76
2018-01-20T00:18:21.545Z,87.73
2018-01-20T00:20:49.200Z,87.79
2018-01-20T00:23:16.778Z,87.69
2018-01-20T00:25:49.963Z,87.94
2018-01-20T00:28:17.544Z,87.66
2018-01-20T00:30:45.104Z,87.81
2018-01-20T00:33:12.719Z,87.89
2018-01-20T00:35:40.305Z,88.06
2018-01-20T00:38:07.897Z,87.67
2018-01-20T00:40:35.506Z,87.75
2018-01-20T00:43:03.095Z,87.55
2018-01-20T00:45:30.663Z,87.29
2018-01-20T00:47:58.370Z,87.63
2018-01-20T00:50:25.970Z,87.80
2018-01-20T00:52:53.554Z,87.72
2018-01-20T00:55:21.193Z,87.96
2018-01-20T00:57:48.793Z,87.99
2018-01-20T01:00:16.373Z,87.89
2018-01-20T01:02:43.952Z,87.73
2018-01-20T01:05:11.545Z,87.59
2018-01-20T01:07:39.098Z,87.42
2018-01-20T01:10:06.719Z,87.22
2018-01-20T01:12:34.360Z,87.49
2018-01-20T01:15:01.960Z,87.57
2018-01-20T01:17:29.553Z,87.77
2018-01-20T01:19:57.264Z,87.89
2018-01-20T01:22:25.123Z,88.02
2018-01-20T01:24:52.799Z,88.02
2018-01-20T01:27:20.371Z,88.31
2018-01-20T01:29:47.949Z,88.28
2018-01-20T01:32:15.558Z,88.09
2018-01-20T01:34:43.452Z,87.84
2018-01-20T01:37:11.030Z,87.94
2018-01-20T01:39:38.625Z,88.07
2018-01-20T01:42:06.216Z,88.17
2018-01-20T01:44:33.814Z,88.16
2018-01-20T01:47:01.407Z,88.33
2018-01-20T01:49:28.990Z,88.14
2018-01-20T01:51:56.551Z,88.27
2018-01-20T01:54:24.195Z,88.34
2018-01-20T01:56:51.819Z,88.24
2018-01-20T01:59:19.370Z,88.21
2018-01-20T02:01:46.957Z,87.94
2018-01-20T02:04:14.519Z,87.58
2018-01-20T02:06:42.106Z,87.72
2018-01-20T02:09:09.690Z,87.86
2018-01-20T02:11:37.256Z,87.94
2018-01-20T02:14:04.810Z,87.88
2018-01-20T02:16:32.376Z,87.53
2018-01-20T02:18:59.931Z,87.52
2018-01-20T02:21:27.558Z,87.90
2018-01-20T02:23:55.108Z,87.83
2018-01-20T02:26:22.668Z,87.85
2018-01-20T02:28:50.270Z,88.05
2018-01-20T02:31:17.817Z,88.26
2018-01-20T02:33:45.432Z,88.00
2018-01-20T02:36:13.036Z,88.25
2018-01-20T02:38:40.626Z,88.22
2018-01-20T02:41:08.203Z,88.16
2018-01-20T02:43:35.801Z,87.79
2018-01-20T02:46:03.530Z,87.98
2018-01-20T02:48:31.113Z,88.03
2018-01-20T02:50:58.759Z,88.40
2018-01-20T02:53:26.385Z,88.31
2018-01-20T02:55:53.965Z,87.97
2018-01-20T02:58:21.574Z,87.85
2018-01-20T03:00:49.191Z,88.02
2018-01-20T03:03:16.743Z,88.32
2018-01-20T03:05:44.357Z,88.60
2018-01-20T03:08:11.916Z,88.69
2018-01-20T03:10:39.496Z,88.76
2018-01-20T03:13:07.048Z,88.70
2018-01-20T03:15:34.637Z,88.95
2018-01-20T03:18:02.199Z,88.62
2018-01-20T03:20:29.766Z,88.39
2018-01-20T03:22:57.378Z,88.34
2018-01-20T03:25:24.977Z,88.23
2018-01-20T03:27:52.539Z,88.34
2018-01-20T03:30:20.137Z,88.05
2018-01-20T03:32:47.710Z,88.25
2018-01-20T03:35:15.657Z,88.41
2018-01-20T03:37:43.245Z,88.21
2018-01-20T03:40:10.852Z,88.33
2018-01-20T03:42:38.452Z,88.67
2018-01-20T03:45:06.302Z,88.85
2018-01-20T03:47:33.880Z,89.23
2018-01-20T03:50:01.466Z,89.14
2018-01-20T03:52:29.023Z,88.87
2018-01-20T03:54:56.604Z,88.73
2018-01-20T03:57:24.536Z,88.29
2018-01-20T03:59:52.159Z,88.44
2018-01-20T04:02:20.055Z,88.64
2018-01-20T04:04:47.641Z,88.69
2018-01-20T04:07:15.192Z,88.87
2018-01-20T04:09:42.782Z,88.63
2018-01-20T04:12:10.347Z,88.55
2018-01-20T04:14:37.954Z,88.55
2018-01-20T04:17:05.690Z,88.89
2018-01-20T04:19:33.261Z,88.94
2018-01-20T04:22:00.852Z,88.46
2018-01-20T04:24:28.454Z,88.75
2018-01-20T04:26:56.188Z,88.71
2018-01-20T04:29:23.765Z,88.90
2018-01-20T04:31:51.316Z,88.92
2018-01-20T04:34:18.941Z,89.06
2018-01-20T04:36:46.499Z,89.10
2018-01-20T04:39:14.103Z,89.03
2018-01-20T04:41:41.660Z,88.88
2018-01-20T04:44:09.511Z,88.98
2018-01-20T04:46:37.113Z,89.16
2018-01-20T04:49:04.846Z,88.97
2018-01-20T04:51:32.465Z,89.09
2018-01-20T04:54:00.030Z,89.19
2018-01-20T04:56:27.581Z,89.16
2018-01-20T04:58:55.147Z,89.58
2018-01-20T05:01:22.713Z,89.76
2018-01-20T05:03:50.310Z,89.65
2018-01-20T05:06:17.886Z,89.61
2018-01-20T05:08:45.433Z,89.94
2018-01-20T05:11:13.293Z,90.41
2018-01-20T05:13:40.886Z,90.42
2018-01-20T05:16:08.506Z,90.17
2018-01-20T05:18:36.292Z,90.07
2018-01-20T05:21:04.150Z,90.13
2018-01-20T05:23:31.731Z,89.88
2018-01-20T05:25:59.304Z,89.90
2018-01-20T05:28:26.927Z,89.96
2018-01-20T05:30:54.473Z,89.91
2018-01-20T05:33:22.059Z,89.85
2018-01-20T05:35:49.917Z,89.56
2018-01-20T05:38:17.784Z,89.75
2018-01-20T05:40:45.649Z,89.92
2018-01-20T05:43:13.209Z,89.90
2018-01-20T05:45:40.816Z,90.15
2018-01-20T05:48:08.376Z,90.04
2018-01-20T05:50:35.958Z,90.20
2018-01-20T05:53:03.545Z,90.14
2018-01-20T05:55:31.108Z,90.15
2018-01-20T05:57:58.669Z,90.06
2018-01-20T06:00:26.307Z,90.21
2018-01-20T06:02:53.868Z,90.17
2018-01-20T06:05:21.777Z,90.01
2018-01-20T06:07:49.364Z,90.03
2018-01-20T06:10:16.988Z,89.99
2018-01-20T06:12:44.576Z,90.06
2018-01-20T06:15:12.436Z,90.55
2018-01-20T06:17:40.062Z,90.30
2018-01-20T06:20:07.971Z,90.04
2018-01-20T06:22:35.549Z,89.85
2018-01-20T06:25:03.123Z,90.18
2018-01-20T06:27:30.694Z,90.23
2018-01-20T06:29:58.296Z,90.32
2018-01-20T06:32:26.008Z,90.22
2018-01-20T06:34:53.575Z,90.19
2018-01-20T06:37:21.393Z,90.10
2018-01-20T06:39:48.999Z,89.89
2018-01-20T06:42:16.602Z,89.78
2018-01-20T06:44:44.193Z,90.15
2018-01-20T06:47:11.753Z,90.15
2018-01-20T06:49:39.438Z,89.94
2018-01-20T06:52:07.021Z,90.11
2018-01-20T06:54:34.659Z,90.10
2018-01-20T06:57:02.495Z,90.30
2018-01-20T06:59:30.112Z,90.43
2018-01-20T07:01:57.763Z,90.10
2018-01-20T07:04:25.388Z,90.07
2018-01-20T07:06:52.993Z,90.00
2018-01-20T07:09:20.607Z,90.03
2018-01-20T07:11:48.184Z,90.13
2018-01-20T07:14:16.190Z,90.02
2018-01-20T07:16:43.766Z,89.79
2018-01-20T07:19:11.350Z,89.97
2018-01-20T07:21:39.236Z,89.83
2018-01-20T07:24:06.803Z,89.77
2018-01-20T07:26:34.394Z,90.14
2018-01-20T07:29:02.029Z,90.26
2018-01-20T07:31:29.992Z,90.35
2018-01-20T07:33:57.563Z,90.23
2018-01-20T07:36:25.118Z,89.86
2018-01-20T07:38:52.708Z,90.02
2018-01-20T07:41:20.356Z,90.29
2018-01-20T07:43:47.947Z,90.33
2018-01-20T07:46:15.550Z,90.02
2018-01-20T07:48:43.144Z,89.90
2018-01-20T07:51:10.712Z,89.90
2018-01-20T07:53:38.267Z,89.45
2018-01-20T07:56:05.867Z,89.60
2018-01-20T07:58:33.441Z,90.00
2018-01-20T08:01:01.339Z,89.70
2018-01-20T08:03:29.189Z,89.17
2018-01-20T08:05:56.765Z,88.94
2018-01-20T08:08:24.350Z,89.06
2018-01-20T08:10:51.925Z,88.88
2018-01-20T08:13:19.497Z,89.21
2018-01-20T08:15:47.316Z,89.25
2018-01-20T08:18:15.149Z,89.35
2018-01-20T08:20:43.044Z,89.53
2018-01-20T08:23:10.603Z,89.56
2018-01-20T08:25:38.190Z,89.30
2018-01-20T08:28:05.829Z,89.12
2018-01-20T08:30:33.391Z,88.81
2018-01-20T08:33:00.992Z,89.11
2018-01-20T08:35:28.573Z,88.98
2018-01-20T08:37:56.138Z,88.71
2018-01-20T08:40:23.766Z,88.49
2018-01-20T08:42:51.354Z,89.03
2018-01-20T08:45:18.932Z,88.77
2018-01-20T08:47:46.496Z,88.98
2018-01-20T08:50:14.073Z,89.01
2018-01-20T08:52:41.660Z,88.43
2018-01-20T08:55:09.231Z,88.33
2018-01-20T08:57:36.866Z,88.08
2018-01-20T09:00:04.436Z,87.49
2018-01-20T09:02:32.006Z,87.13
2018-01-20T09:04:59.753Z,87.42
2018-01-20T09:07:27.378Z,87.50
2018-01-20T09:09:54.986Z,87.37
2018-01-20T09:12:22.576Z,87.26
2018-01-20T09:14:50.509Z,87.18
2018-01-20T09:17:18.105Z,87.32
2018-01-20T09:19:46.082Z,87.56
2018-01-20T09:22:14.009Z,88.00
2018-01-20T09:24:41.607Z,88.28
2018-01-20T09:27:09.893Z,88.39
2018-01-20T09:29:37.487Z,88.55
2018-01-20T09:32:05.390Z,88.79
2018-01-20T09:34:33.368Z,88.75
2018-01-20T09:37:00.949Z,89.34
2018-01-20T09:39:28.886Z,89.47
2018-01-20T09:41:56.488Z,89.47
2018-01-20T09:44:24.052Z,89.96
2018-01-20T09:46:51.666Z,89.51
2018-01-20T09:49:19.382Z,89.24
2018-01-20T09:51:46.971Z,88.10
2018-01-20T09:54:14.601Z,88.03
2018-01-20T09:56:42.229Z,87.51
2018-01-20T09:59:09.986Z,87.48
2018-01-20T10:01:37.586Z,88.24
2018-01-20T10:04:05.172Z,87.96
2018-01-20T10:06:32.775Z,87.90
2018-01-20T10:09:00.329Z,87.53
2018-01-20T10:11:28.303Z,87.80
2018-01-20T10:13:56.169Z,87.50
2018-01-20T10:16:23.764Z,86.83
2018-01-20T10:18:51.496Z,86.52
2018-01-20T10:21:19.360Z,86.50
2018-01-20T10:23:47.048Z,87.14
2018-01-20T10:26:14.657Z,86.62
2018-01-20T10:28:42.231Z,86.71
2018-01-20T10:31:10.010Z,87.22
2018-01-20T10:33:37.586Z,87.75
2018-01-20T10:36:05.184Z,87.31
2018-01-20T10:38:32.757Z,87.04
2018-01-20T10:41:00.409Z,87.59
2018-01-20T10:43:28.032Z,87.67
2018-01-20T10:45:55.650Z,87.31
2018-01-20T10:48:23.225Z,86.33
2018-01-20T10:50:50.810Z,85.14
2018-01-20T10:53:18.384Z,84.38
2018-01-20T10:55:46.238Z,83.42
2018-01-20T10:58:13.821Z,83.07
2018-01-20T11:00:41.403Z,83.47
2018-01-20T11:03:09.348Z,83.05
2018-01-20T11:05:37.111Z,82.63
2018-01-20T11:08:04.706Z,82.31
2018-01-20T11:10:32.356Z,82.48
2018-01-20T11:12:59.963Z,82.17
2018-01-20T11:15:27.534Z,82.12
2018-01-20T11:17:55.181Z,82.55
2018-01-20T11:20:22.816Z,83.31
2018-01-20T11:22:50.366Z,83.37
2018-01-20T11:25:18.019Z,83.19
2018-01-20T11:27:45.580Z,82.66
2018-01-20T11:30:13.138Z,83.74
2018-01-20T11:32:40.721Z,84.05
2018-01-20T11:35:08.281Z,84.46
2018-01-20T11:37:36.210Z,84.25
2018-01-20T11:40:03.812Z,84.12
2018-01-20T11:42:31.451Z,83.72
2018-01-20T11:44:59.036Z,83.12
2018-01-20T11:47:26.662Z,83.08
2018-01-20T11:49:54.617Z,83.61
2018-01-20T11:52:22.197Z,83.51
2018-01-20T11:54:49.784Z,84.02
2018-01-20T11:57:17.718Z,83.89
2018-01-20T11:59:45.299Z,84.31
2018-01-20T12:02:12.938Z,84.66
2018-01-20T12:04:40.527Z,84.36
2018-01-20T12:07:08.357Z,84.49
2018-01-20T12:09:36.843Z,84.73
2018-01-20T12:12:04.431Z,85.11
2018-01-20T12:14:32.001Z,84.54
2018-01-20T12:16:59.607Z,83.90
2018-01-20T12:19:27.203Z,84.36
2018-01-20T12:21:55.976Z,84.27
2018-01-20T12:24:23.594Z,83.73
2018-01-20T12:26:51.233Z,81.57
2018-01-20T12:29:18.954Z,80.91
2018-01-20T12:31:46.633Z,81.61
2018-01-20T12:34:14.240Z,81.71
2018-01-20T12:36:41.847Z,80.19
2018-01-20T12:39:09.716Z,80.09
2018-01-20T12:41:38.502Z,79.62
2018-01-20T12:44:06.090Z,79.18
2018-01-20T12:46:34.054Z,79.16
2018-01-20T12:49:02.009Z,78.78
2018-01-20T12:51:29.574Z,78.29
2018-01-20T12:53:57.214Z,78.39
2018-01-20T12:56:24.776Z,79.14
2018-01-20T12:58:52.329Z,80.11
2018-01-20T13:01:19.959Z,79.79
2018-01-20T13:03:47.887Z,81.64
2018-01-20T13:06:15.747Z,81.78
2018-01-20T13:08:43.620Z,81.87
2018-01-20T13:11:11.286Z,81.35
2018-01-20T13:13:38.899Z,80.95
2018-01-20T13:16:06.466Z,81.86
2018-01-20T13:18:34.054Z,81.99
2018-01-20T13:21:01.611Z,81.21
2018-01-20T13:23:29.191Z,81.82
2018-01-20T13:25:56.849Z,82.51
2018-01-20T13:28:24.393Z,82.05
2018-01-20T13:30:51.973Z,81.95
2018-01-20T13:33:19.550Z,81.31
2018-01-20T13:35:47.116Z,81.56
2018-01-20T13:38:16.962Z,81.74
2018-01-20T13:40:44.696Z,81.97
2018-01-20T13:43:12.549Z,81.77
2018-01-20T13:45:41.471Z,81.04
2018-01-20T13:48:09.639Z,80.96
2018-01-20T13:50:37.361Z,80.72
2018-01-20T13:53:04.947Z,81.03
2018-01-20T13:55:32.537Z,80.74
2018-01-20T13:58:00.085Z,80.50
2018-01-20T14:00:27.685Z,80.65
2018-01-20T14:02:55.269Z,80.73
2018-01-20T14:05:22.865Z,80.32
2018-01-20T14:07:50.475Z,80.17
2018-01-20T14:10:18.369Z,79.88
2018-01-20T14:12:46.233Z,79.51
2018-01-20T14:15:14.109Z,80.30
2018-01-20T14:17:41.654Z,80.26
2018-01-20T14:20:09.289Z,80.11
2018-01-20T14:22:36.902Z,81.30
2018-01-20T14:25:04.534Z,80.96
2018-01-20T14:27:32.146Z,81.00
2018-01-20T14:29:59.715Z,81.27
2018-01-20T14:32:27.326Z,81.15
2018-01-20T14:34:55.243Z,80.98
2018-01-20T14:37:22.806Z,81.57
2018-01-20T14:39:50.374Z,81.41
2018-01-20T14:42:17.940Z,81.77
2018-01-20T14:44:45.525Z,82.05
2018-01-20T14:47:13.144Z,81.54
2018-01-20T14:49:40.985Z,81.91
2018-01-20T14:52:08.854Z,81.80
2018-01-20T14:54:36.419Z,82.13
2018-01-20T14:57:04.180Z,82.39
2018-01-20T14:59:31.730Z,82.57
2018-01-20T15:01:59.301Z,82.80
2018-01-20T15:04:27.156Z,82.94
2018-01-20T15:06:54.962Z,82.96
2018-01-20T15:09:22.565Z,82.85
2018-01-20T15:11:50.122Z,83.23
2018-01-20T15:14:17.934Z,83.78
2018-01-20T15:16:45.502Z,83.61
2018-01-20T15:19:13.280Z,83.72
2018-01-20T15:21:40.857Z,83.65
2018-01-20T15:24:08.440Z,83.95
2018-01-20T15:26:36.003Z,83.56
2018-01-20T15:29:03.628Z,83.59
2018-01-20T15:31:31.212Z,83.56
2018-01-20T15:33:58.806Z,83.42
2018-01-20T15:36:26.387Z,83.23
2018-01-20T15:38:53.962Z,82.81
2018-01-20T15:41:21.549Z,83.10
2018-01-20T15:43:49.125Z,82.80
2018-01-20T15:46:16.740Z,83.06
2018-01-20T15:48:44.805Z,83.00
2018-01-20T15:51:12.377Z,83.20
2018-01-20T15:53:40.025Z,83.48
2018-01-20T15:56:07.600Z,83.89
2018-01-20T15:58:35.544Z,84.02
2018-01-20T16:01:03.150Z,84.39
2018-01-20T16:03:30.738Z,84.21
2018-01-20T16:05:58.357Z,84.03
2018-01-20T16:08:25.976Z,84.09
2018-01-20T16:10:53.613Z,84.27
2018-01-20T16:13:21.195Z,84.37
2018-01-20T16:15:48.807Z,84.68
2018-01-20T16:18:16.435Z,84.89
2018-01-20T16:20:44.313Z,84.90
2018-01-20T16:23:12.042Z,85.03
2018-01-20T16:25:39.648Z,85.16
2018-01-20T16:28:07.224Z,85.14
2018-01-20T16:30:34.888Z,85.30
2018-01-20T16:33:02.482Z,84.95
2018-01-20T16:35:30.116Z,84.64
2018-01-20T16:37:57.729Z,84.52
2018-01-20T16:40:25.387Z,84.35
2018-01-20T16:42:52.983Z,84.36
2018-01-20T16:45:20.891Z,84.49
2018-01-20T16:47:48.559Z,84.54
2018-01-20T16:50:16.144Z,84.07
2018-01-20T16:52:43.728Z,84.08
2018-01-20T16:55:11.597Z,83.98
2018-01-20T16:57:39.206Z,84.08
2018-01-20T17:00:06.925Z,84.64
2018-01-20T17:02:34.483Z,84.62
2018-01-20T17:05:02.061Z,84.75
2018-01-20T17:07:29.712Z,84.79
2018-01-20T17:09:57.365Z,84.96
2018-01-20T17:12:24.981Z,85.31
2018-01-20T17:14:52.789Z,85.31
2018-01-20T17:17:20.665Z,85.28
2018-01-20T17:19:48.344Z,85.28
2018-01-20T17:22:15.911Z,85.25
2018-01-20T17:24:43.872Z,84.64
2018-01-20T17:27:11.434Z,84.76
2018-01-20T17:29:39.110Z,85.05
2018-01-20T17:32:06.703Z,85.04
2018-01-20T17:34:34.288Z,84.87
2018-01-20T17:37:01.925Z,84.67
2018-01-20T17:39:29.482Z,84.81
2018-01-20T17:41:57.077Z,84.19
2018-01-20T17:44:24.650Z,84.45
2018-01-20T17:46:52.238Z,84.50
2018-01-20T17:49:20.096Z,84.67
2018-01-20T17:51:47.659Z,84.82
2018-01-20T17:54:15.610Z,84.67
2018-01-20T17:56:43.262Z,84.29
2018-01-20T17:59:11.061Z,84.56
2018-01-20T18:01:38.666Z,84.81
2018-01-20T18:04:06.319Z,84.42
2018-01-20T18:06:33.893Z,84.35
2018-01-20T18:09:01.507Z,84.25
2018-01-20T18:11:29.096Z,84.30
2018-01-20T18:13:56.733Z,84.46
2018-01-20T18:16:24.372Z,84.44
2018-01-20T18:18:51.990Z,84.52
2018-01-20T18:21:19.634Z,84.29
2018-01-20T18:23:47.215Z,84.33
2018-01-20T18:26:14.858Z,84.53
2018-01-20T18:28:42.417Z,84.80
2018-01-20T18:31:10.091Z,84.79
2018-01-20T18:33:37.745Z,84.86
2018-01-20T18:36:05.412Z,84.70
2018-01-20T18:38:33.022Z,85.10
2018-01-20T18:41:00.637Z,85.11
2018-01-20T18:43:29.146Z,85.28
2018-01-20T18:45:56.783Z,85.20
2018-01-20T18:48:24.349Z,85.50
2018-01-20T18:50:52.270Z,85.36
2018-01-20T18:53:19.850Z,85.28
2018-01-20T18:55:47.468Z,85.65
2018-01-20T18:58:15.353Z,85.58
2018-01-20T19:00:43.662Z,85.62
2018-01-20T19:03:11.312Z,85.83
2018-01-20T19:05:38.911Z,85.61
2018-01-20T19:08:06.520Z,85.71
2018-01-20T19:10:34.094Z,85.72
2018-01-20T19:13:01.681Z,85.75
2018-01-20T19:15:30.101Z,85.82
2018-01-20T19:17:57.995Z,85.77
2018-01-20T19:20:25.608Z,85.80
2018-01-20T19:22:53.532Z,85.90
2018-01-20T19:25:21.138Z,85.36
2018-01-20T19:27:49.055Z,85.11
2018-01-20T19:30:16.634Z,85.35
2018-01-20T19:32:44.169Z,85.25
2018-01-20T19:35:11.757Z,85.75
2018-01-20T19:37:39.357Z,85.87
2018-01-20T19:40:06.975Z,85.73
2018-01-20T19:42:34.537Z,85.79
2018-01-20T19:45:02.097Z,85.49
2018-01-20T19:47:29.686Z,85.24
2018-01-20T19:49:57.256Z,85.42
2018-01-20T19:52:25.130Z,85.43
2018-01-20T19:54:52.765Z,85.63
2018-01-20T19:57:20.608Z,85.50
2018-01-20T19:59:48.203Z,85.67
2018-01-20T20:02:15.761Z,85.53
2018-01-20T20:04:43.365Z,85.54
2018-01-20T20:07:11.356Z,85.55
2018-01-20T20:09:38.937Z,85.05
2018-01-20T20:12:06.494Z,85.11
2018-01-20T20:14:34.366Z,85.26
2018-01-20T20:17:01.961Z,85.44
2018-01-20T20:19:29.551Z,85.23
2018-01-20T20:21:57.134Z,84.78
2018-01-20T20:24:24.695Z,84.89
2018-01-20T20:26:52.378Z,84.71
2018-01-20T20:29:20.228Z,84.42
2018-01-20T20:31:47.815Z,84.42
2018-01-20T20:34:15.423Z,84.59
2018-01-20T20:36:42.969Z,84.74
2018-01-20T20:39:10.555Z,84.60
2018-01-20T20:41:38.133Z,84.47
2018-01-20T20:44:05.777Z,84.76
2018-01-20T20:46:33.412Z,84.27
2018-01-20T20:49:00.973Z,84.40
2018-01-20T20:51:28.604Z,84.05
2018-01-20T20:53:56.152Z,84.29
2018-01-20T20:56:23.815Z,84.13
2018-01-20T20:58:51.402Z,83.53
2018-01-20T21:01:19.074Z,83.64
2018-01-20T21:03:46.630Z,83.32
2018-01-20T21:06:14.281Z,83.46
2018-01-20T21:08:41.876Z,83.54
2018-01-20T21:11:09.454Z,83.60
2018-01-20T21:13:36.996Z,83.84
2018-01-20T21:16:04.905Z,84.00
2018-01-20T21:18:32.491Z,83.97
2018-01-20T21:21:00.107Z,84.13
2018-01-20T21:23:27.996Z,84.30
2018-01-20T21:25:55.550Z,84.13
2018-01-20T21:28:23.153Z,84.27
2018-01-20T21:30:50.699Z,84.41
2018-01-20T21:33:18.415Z,83.98
2018-01-20T21:35:46.097Z,83.66
2018-01-20T21:38:13.649Z,83.92
2018-01-20T21:40:41.211Z,84.24
2018-01-20T21:43:09.125Z,84.11
2018-01-20T21:45:36.730Z,83.69
2018-01-20T21:48:04.622Z,83.66
2018-01-20T21:50:32.199Z,83.78
2018-01-20T21:52:59.784Z,84.09
2018-01-20T21:55:27.344Z,83.69
2018-01-20T21:57:55.013Z,84.10
2018-01-20T22:00:22.644Z,84.22
2018-01-20T22:02:50.226Z,84.04
2018-01-20T22:05:17.853Z,83.69
2018-01-20T22:07:45.425Z,83.39
2018-01-20T22:10:13.004Z,83.35
2018-01-20T22:12:40.619Z,83.27
2018-01-20T22:15:08.520Z,83.21
2018-01-20T22:17:36.386Z,83.18
2018-01-20T22:20:03.948Z,83.10
2018-01-20T22:22:31.564Z,82.97
2018-01-20T22:24:59.570Z,83.24
2018-01-20T22:27:27.181Z,83.35
2018-01-20T22:29:54.803Z,83.61
2018-01-20T22:32:22.362Z,83.64
2018-01-20T22:34:50.770Z,83.47
2018-01-20T22:37:18.709Z,83.17
2018-01-20T22:39:46.258Z,83.28
2018-01-20T22:42:13.842Z,83.38
2018-01-20T22:44:41.396Z,83.62
2018-01-20T22:47:09.007Z,83.37
2018-01-20T22:49:36.574Z,83.43
2018-01-20T22:52:04.591Z,83.15
2018-01-20T22:54:32.175Z,83.14
2018-01-20T22:57:00.018Z,83.47
2018-01-20T22:59:27.636Z,83.79
2018-01-20T23:01:55.197Z,83.47
2018-01-20T23:04:22.755Z,83.58
2018-01-20T23:06:50.371Z,83.69
2018-01-20T23:09:18.131Z,83.74
2018-01-20T23:11:46.343Z,83.29
2018-01-20T23:14:14.171Z,83.45
2018-01-20T23:16:42.038Z,83.58
2018-01-20T23:19:09.609Z,83.58
2018-01-20T23:21:37.195Z,83.84
2018-01-20T23:24:04.836Z,84.16
2018-01-20T23:26:32.491Z,83.70
2018-01-20T23:29:00.356Z,83.61
2018-01-20T23:31:27.949Z,83.05
2018-01-20T23:33:55.515Z,83.46
2018-01-20T23:36:23.127Z,83.55
2018-01-20T23:38:50.717Z,83.38
2018-01-20T23:41:18.424Z,83.31
2018-01-20T23:43:45.984Z,83.14
2018-01-20T23:46:13.532Z,83.43
2018-01-20T23:48:41.449Z,83.44
2018-01-20T23:51:09.008Z,83.47
2018-01-20T23:53:36.564Z,83.77
2018-01-20T23:56:04.185Z,83.97
2018-01-20T23:58:32.112Z,84.07
